Lake Worth, FL

6:17 PM EDT on April 27, 2015 (GMT -0400)
Chestnut Hill | | Change Station
CLOSE
Current Station
Personal Weather Station
Location: Lake Worth, FL
Elevation: 17 ft
Nearby Weather Stations

Elev 17 ft 26.60 °N, 80.13 °W | Updated 8 minutes ago

Mostly Cloudy
Mostly Cloudy
86.5 °F
Feels Like 94 °F
N
8.9
Wind Variable Wind from South

Today
High -- | Low -- °F
--% Chance of Precip.
Yesterday
High -- | Low -- °F
Precip. -- in
6:46 AM 7:50 PM
Waxing Gibbous, 68% visible
Pressure 29.78 in
Visibility 10.0 miles
Clouds Scattered Clouds 2500 ft
Mostly Cloudy 5500 ft
Mostly Cloudy 7500 ft
Heat Index 94 °F
Dew Point 73 °F
Humidity 64%
Rainfall 0.00 in
Snow Depth Not available.
UV 1 out of 12
Pollen 4.30 out of 12
Air Quality Not available.
Flu Activity Local Activity
SPECI KPBI 272211Z 06009KT 10SM TS SCT025CB BKN055 BKN075 29/22 A2978 RMK AO2 TSB10 OCNL LTGICCC OHD-E-SW TS OHD-E-SW MOV NE CB DSNT NW T02940222

More Conditions Fewer Conditions

Pressure 29.78 in
Visibility 10.0 miles
Clouds Scattered Clouds 2500 ft
Mostly Cloudy 5500 ft
Mostly Cloudy 7500 ft
Heat Index 94 °F
Dew Point 73 °F
Humidity 64%
Rainfall 0.00 in
Snow Depth Not available.
UV 1 out of 12
Pollen 4.30 out of 12
Air Quality Not available.
Flu Activity Local Activity
SPECI KPBI 272211Z 06009KT 10SM TS SCT025CB BKN055 BKN075 29/22 A2978 RMK AO2 TSB10 OCNL LTGICCC OHD-E-SW TS OHD-E-SW MOV NE CB DSNT NW T02940222

More Conditions Fewer Conditions

10-Day Weather Forecast

Almanac

Astronomy

Apr. 27, 2015 Rise Set
Actual Time
Civil Twilight
Nautical Twilight
Astronomical Twilight
Moon
Length of Visible Light
Length of Day
Tomorrow will be .
, % of the Moon is Illuminated

Today's Extremes

State Highs State Lows

Community

WunderPhotos

Upload Photos

1,817,442 photos uploaded!

WunderBlogs® & News

Nearby

Air Quality

  Air Quality AQ Index Pollutant
Not available.

Snow Depth

Station Depth Elevation

Earthquake Activity

City Distance Mag. Time & Date
Minimum magnitude displayed is 2.5.

Coastal Water Temperatures

Place Temperature

Stations

Nearby Weather Stations

Station Location Temp. Windchill Dew Point Humidity Wind Precip. Elev Updated Type